Bayview, Georgia
Current Conditions -  °F | °C
As of 12:58 PM on Thursday 18 Dec 2014 (Local Time) from KLHW Reporting Station
Clear Clear  
Wind Chill: 58°   Ceiling: Unl
Heat Index: 58°   Visibility: 10mi
Dew Point: 37°   Wind: 3mph
Humidity: 45%   Direction: NA
Pressure: 30.1"   Gusts: NA
Location:  31.755°N, 81.7451°W
Report Text: KLHW 181758Z AUTO VRB03KT 10SM CLR 15/03 A3010 RMK AO2 SLP196 60000 T01460029 10148 20041 57027
Loading
Personal Weather Stations






























Interactive Weather Map New forecast layout! Learn more

10-Day Weather Forecast

Advertisements
Track Severe Weather on mobile